Time;durP1;ratioP1;P1;durP2;ratioP2;P2;SDS_P1;SDS_P2;PMS_P1;PMS_P2;Temp;Humidity;BMP_temperature;BMP_pressure;BME280_temperature;BME280_humidity;BME280_pressure;Samples;Min_cycle;Max_cycle;Signal;HPM_P1;HPM_P2
2021/05/06 00:01:54;;;;;;;8.30;2.52;;;;;;;12.45;59.61;99107.58;1821388;78;21650;-85
2021/05/06 00:32:05;;;;;;;11.60;2.42;;;;;;;12.04;58.17;99097.23;1684611;85;21387;-82
2021/05/06 00:34:32;;;;;;;7.90;2.90;;;;;;;12.02;58.30;99081.12;1694456;84;21198;-84
2021/05/06 00:37:00;;;;;;;9.83;3.10;;;;;;;12.00;58.05;99079.03;1684688;85;21162;-82
2021/05/06 00:39:42;;;;;;;8.43;2.35;;;;;;;11.99;58.16;99083.47;1693944;84;21218;-83
2021/05/06 00:58:56;;;;;;;9.03;3.27;;;;;;;11.86;57.97;99059.56;1695039;84;22233;-87
2021/05/06 01:01:35;;;;;;;9.45;3.05;;;;;;;11.83;58.06;99051.84;1719441;78;21203;-87
2021/05/06 01:06:28;;;;;;;5.40;2.72;;;;;;;11.81;58.42;99055.03;1715957;81;21189;-78
2021/05/06 01:09:02;;;;;;;4.67;2.70;;;;;;;11.80;59.09;99055.98;1746510;82;21188;-80
2021/05/06 01:11:33;;;;;;;5.90;2.58;;;;;;;11.74;59.09;99048.43;1739678;82;21207;-79
2021/05/06 01:14:05;;;;;;;9.15;3.42;;;;;;;11.67;59.37;99045.77;1775794;80;21234;-80
2021/05/06 01:16:34;;;;;;;7.30;3.08;;;;;;;11.60;59.67;99038.69;1776318;80;21245;-79
2021/05/06 01:19:04;;;;;;;7.47;3.10;;;;;;;11.52;60.20;99030.37;1776536;79;21185;-80
2021/05/06 01:21:32;;;;;;;7.03;2.65;;;;;;;11.45;60.46;99044.37;1776260;80;21206;-80
2021/05/06 01:24:03;;;;;;;6.10;2.80;;;;;;;11.43;60.67;99038.33;1776164;80;21574;-80
2021/05/06 01:26:40;;;;;;;7.25;2.75;;;;;;;11.38;61.05;99035.13;1773610;78;21191;-79
2021/05/06 01:29:10;;;;;;;5.87;2.60;;;;;;;11.33;61.40;99034.55;1734554;82;21541;-80
2021/05/06 01:31:38;;;;;;;6.67;3.25;;;;;;;11.25;61.79;99034.13;1768273;81;21168;-79
2021/05/06 01:34:18;;;;;;;8.30;2.85;;;;;;;11.18;62.10;99030.14;1767772;81;21164;-78
2021/05/06 01:36:51;;;;;;;6.75;2.98;;;;;;;11.11;62.38;99041.05;1767787;81;21192;-80
2021/05/06 01:42:08;;;;;;;5.75;3.08;;;;;;;11.06;62.76;99041.75;1767855;81;21167;-82
2021/05/06 02:00:39;;;;;;;5.00;3.00;;;;;;;10.87;63.41;99016.92;1745105;80;21182;-83
2021/05/06 02:03:17;;;;;;;11.00;3.00;;;;;;;10.86;63.21;99022.30;1769753;81;25023;-85
2021/05/06 02:05:46;;;;;;;8.55;2.95;;;;;;;10.84;63.54;99027.64;1769763;81;21259;-83
2021/05/06 02:08:14;;;;;;;8.43;3.50;;;;;;;10.83;63.58;99012.75;1768989;81;21230;-83
2021/05/06 02:10:44;;;;;;;3.98;2.92;;;;;;;10.81;63.17;99013.78;1763437;81;21211;-84
2021/05/06 02:13:15;;;;;;;6.97;2.90;;;;;;;10.80;63.15;99012.09;1763491;81;21204;-83
2021/05/06 02:15:50;;;;;;;11.65;3.05;;;;;;;10.80;63.15;99025.26;1763805;80;21373;-83
2021/05/06 02:18:16;;;;;;;5.85;3.00;;;;;;;10.80;62.88;99009.45;1763078;81;21210;-84
2021/05/06 02:20:46;;;;;;;8.60;3.50;;;;;;;10.79;63.02;99024.86;1763682;81;21148;-77
2021/05/06 02:23:15;;;;;;;5.03;3.35;;;;;;;10.77;63.08;99005.69;1763668;81;21203;-77
2021/05/06 02:25:44;;;;;;;11.28;4.90;;;;;;;10.76;62.91;99009.23;1763368;81;21195;-76
2021/05/06 02:28:12;;;;;;;12.95;5.10;;;;;;;10.75;63.08;98998.34;1759337;80;21184;-75
2021/05/06 02:30:40;;;;;;;13.45;4.87;;;;;;;10.74;63.06;98996.63;1759122;81;21607;-75
2021/05/06 02:33:09;;;;;;;23.45;12.58;;;;;;;10.74;63.42;98992.67;1759397;81;21171;-75
2021/05/06 02:35:39;;;;;;;19.48;8.95;;;;;;;10.71;63.07;98987.95;1759538;81;21108;-76
2021/05/06 02:38:07;;;;;;;14.45;5.78;;;;;;;10.73;63.13;99002.84;1759333;81;21367;-76
2021/05/06 02:40:35;;;;;;;7.53;3.12;;;;;;;10.70;62.96;99001.23;1759246;81;21773;-76
2021/05/06 02:43:03;;;;;;;9.00;3.10;;;;;;;10.70;62.94;99002.07;1759224;81;21163;-75
2021/05/06 02:45:32;;;;;;;6.78;3.17;;;;;;;10.69;63.00;98999.51;1759288;81;21167;-77
2021/05/06 02:48:00;;;;;;;16.55;5.10;;;;;;;10.69;63.11;99010.89;1759237;81;21020;-75
2021/05/06 02:50:29;;;;;;;7.85;3.60;;;;;;;10.69;63.17;99008.25;1759242;81;21164;-76
2021/05/06 02:55:35;;;;;;;18.00;7.37;;;;;;;10.68;63.20;99009.20;1759263;81;21187;-76
2021/05/06 03:03:25;;;;;;;6.40;3.10;;;;;;;10.69;63.41;99014.83;1825288;78;21162;-77
2021/05/06 03:05:55;;;;;;;9.38;3.00;;;;;;;10.68;63.96;99014.47;1825350;78;21382;-77
2021/05/06 03:24:32;;;;;;;7.28;3.37;;;;;;;10.59;64.30;99004.45;1820886;78;21147;-78
2021/05/06 03:27:01;;;;;;;11.65;4.62;;;;;;;10.60;63.83;99014.03;1788820;80;21154;-75
2021/05/06 03:29:33;;;;;;;7.03;3.12;;;;;;;10.71;64.22;99003.75;1788679;80;22400;-76
2021/05/06 03:34:53;;;;;;;9.15;3.02;;;;;;;11.11;62.58;99005.92;1788790;80;21196;-74
2021/05/06 03:43:12;;;;;;;6.30;2.70;;;;;;;12.15;58.87;98991.03;1764059;80;21403;-74
2021/05/06 03:45:58;;;;;;;3.55;2.40;;;;;;;12.33;58.84;98995.17;1749538;80;21226;-76
2021/05/06 04:15:36;;;;;;;7.10;2.87;;;;;;;12.29;58.82;99017.42;1772768;80;21616;-74
2021/05/06 04:18:11;;;;;;;3.62;2.50;;;;;;;12.79;57.23;99047.74;1756679;80;21248;-73
2021/05/06 04:35:26;;;;;;;6.03;2.52;;;;;;;13.60;54.09;99050.89;1762783;80;21219;-73
2021/05/06 04:39:42;;;;;;;16.55;3.08;;;;;;;13.71;53.94;99050.63;1821764;76;22760;-73
2021/05/06 04:53:26;;;;;;;27.75;3.55;;;;;;;12.72;56.68;99064.93;1785762;80;21647;-73
2021/05/06 04:55:49;;;;;;;10.50;2.17;;;;;;;12.58;57.00;99042.02;1756362;81;21188;-73
2021/05/06 05:04:12;;;;;;;9.10;3.42;;;;;;;13.36;55.42;99052.02;1757380;81;21209;-71
2021/05/06 05:06:38;;;;;;;22.20;3.35;;;;;;;13.98;53.75;99059.36;1756383;81;21623;-73
2021/05/06 05:11:43;;;;;;;10.48;2.55;;;;;;;14.12;52.55;99061.55;1784796;80;21191;-74
2021/05/06 05:14:30;;;;;;;10.28;2.90;;;;;;;13.97;52.85;99060.32;1784902;80;21160;-74
2021/05/06 05:25:40;;;;;;;32.53;4.97;;;;;;;13.15;55.84;99066.14;1871715;74;22705;-74
2021/05/06 05:27:49;;;;;;;10.13;3.40;;;;;;;12.93;56.12;99077.70;1830668;77;21111;-72
2021/05/06 05:30:18;;;;;;;12.07;3.77;;;;;;;12.75;56.69;99063.41;1855525;77;21192;-73
2021/05/06 05:32:48;;;;;;;;;;;;;;;12.71;57.71;99071.14;1778537;80;21664;-73
2021/05/06 05:38:07;;;;;;;18.75;4.80;;;;;;;12.74;57.76;99078.86;1805368;77;22626;-73
2021/05/06 05:56:40;;;;;;;8.15;3.90;;;;;;;12.91;58.23;99076.98;1835255;77;21134;-74
2021/05/06 05:59:08;;;;;;;10.82;4.15;;;;;;;12.90;57.63;99083.19;1815141;78;21179;-73
2021/05/06 06:01:41;;;;;;;12.07;3.47;;;;;;;12.93;57.85;99093.56;1815905;77;21133;-74
2021/05/06 06:04:10;;;;;;;11.38;3.50;;;;;;;12.88;57.50;99100.93;1812378;78;21165;-75
2021/05/06 06:06:38;;;;;;;9.53;3.37;;;;;;;12.82;57.61;99099.54;1817584;78;21418;-74
2021/05/06 06:09:10;;;;;;;5.55;3.58;;;;;;;12.77;58.06;99111.72;1788120;78;22142;-75
2021/05/06 06:11:38;;;;;;;7.83;3.40;;;;;;;12.78;58.06;99116.52;1780541;79;21666;-74
2021/05/06 06:14:08;;;;;;;8.23;3.08;;;;;;;12.80;58.24;99112.83;1796563;78;21130;-75
2021/05/06 06:16:39;;;;;;;8.83;3.47;;;;;;;12.85;58.16;99110.38;1781487;79;21215;-73
2021/05/06 06:19:06;;;;;;;10.32;3.72;;;;;;;12.92;58.33;99113.02;1814852;78;22296;-76
2021/05/06 06:24:06;;;;;;;;;;;;;;;13.04;59.27;99121.96;1784919;78;21187;-76
2021/05/06 06:26:35;;;;;;;11.33;3.98;;;;;;;13.14;59.38;99138.95;1784891;78;20264;-82
2021/05/06 06:29:08;;;;;;;16.30;4.20;;;;;;;13.19;58.51;99142.98;1801494;77;21139;-76
2021/05/06 06:34:08;;;;;;;17.65;4.83;;;;;;;13.29;58.36;99123.92;1804879;77;21622;-77
2021/05/06 06:36:38;;;;;;;29.60;5.28;;;;;;;13.36;57.77;99135.80;1817706;77;21210;-79
2021/05/06 06:39:07;;;;;;;21.82;4.92;;;;;;;13.34;57.44;99146.95;1815870;78;25707;-81
2021/05/06 06:41:35;;;;;;;13.08;4.58;;;;;;;13.27;57.82;99145.13;1814170;77;21141;-81
2021/05/06 06:44:05;;;;;;;13.10;4.03;;;;;;;13.31;57.90;99145.35;1815160;78;22288;-81
2021/05/06 06:46:34;;;;;;;12.18;4.55;;;;;;;13.43;57.61;99154.29;1816159;77;21245;-80
2021/05/06 06:49:02;;;;;;;12.23;4.25;;;;;;;13.44;57.67;99157.33;1813561;78;21189;-78
2021/05/06 06:51:32;;;;;;;13.28;4.28;;;;;;;13.41;57.88;99165.44;1813881;78;21208;-79
2021/05/06 06:54:00;;;;;;;6.65;3.55;;;;;;;13.47;57.66;99165.53;1814142;78;21452;-80
2021/05/06 06:56:28;;;;;;;8.48;3.52;;;;;;;13.52;58.24;99169.56;1766147;79;22399;-81
2021/05/06 06:58:56;;;;;;;10.18;4.40;;;;;;;13.60;58.43;99179.19;1810128;77;21218;-81
2021/05/06 07:01:29;;;;;;;;;;;;;;;13.66;57.96;99177.94;1812647;78;21189;-76
2021/05/06 07:03:57;;;;;;;6.55;4.03;;;;;;;13.70;58.14;99182.56;1814573;77;20282;-79
2021/05/06 07:06:26;;;;;;;12.35;3.62;;;;;;;13.72;58.35;99182.00;1820462;78;21146;-76
2021/05/06 07:08:55;;;;;;;11.35;3.72;;;;;;;13.74;57.84;99183.59;1816017;78;21433;-76
2021/05/06 07:11:23;;;;;;;8.20;3.67;;;;;;;13.78;57.94;99189.52;1816550;77;21162;-80
2021/05/06 07:13:51;;;;;;;7.92;4.20;;;;;;;13.79;57.39;99193.87;1814575;78;21365;-81
2021/05/06 07:16:20;;;;;;;6.97;3.90;;;;;;;13.79;57.68;99196.52;1764060;80;21165;-80
2021/05/06 07:18:48;;;;;;;9.38;4.08;;;;;;;13.80;57.98;99206.14;1781672;80;21173;-82
2021/05/06 07:21:17;;;;;;;9.30;4.45;;;;;;;13.80;59.44;99206.14;1815601;78;21762;-80
2021/05/06 07:23:45;;;;;;;10.50;4.47;;;;;;;13.82;61.27;99213.52;1815378;78;21260;-80
2021/05/06 07:26:15;;;;;;;10.10;4.72;;;;;;;13.80;61.86;99212.76;1816176;78;21179;-80
2021/05/06 07:28:45;;;;;;;10.88;4.80;;;;;;;13.65;62.83;99209.32;1820686;78;21170;-83
2021/05/06 07:31:15;;;;;;;13.43;4.70;;;;;;;13.57;63.63;99218.20;1781224;80;21657;-81
2021/05/06 07:33:49;;;;;;;9.30;4.60;;;;;;;13.53;64.05;99217.58;1820369;78;21360;-81
2021/05/06 07:36:20;;;;;;;6.83;4.20;;;;;;;13.52;64.56;99215.86;1820346;78;21197;-81
2021/05/06 07:38:50;;;;;;;7.22;4.53;;;;;;;13.52;65.43;99233.53;1780969;80;28592;-82
2021/05/06 07:41:20;;;;;;;8.55;4.78;;;;;;;13.52;65.74;99233.53;1819997;78;21178;-81
2021/05/06 07:43:51;;;;;;;8.75;4.97;;;;;;;13.47;66.55;99235.62;1819493;78;21171;-81
2021/05/06 07:46:20;;;;;;;8.83;4.62;;;;;;;13.44;66.84;99247.25;1821230;77;21217;-79
2021/05/06 07:48:51;;;;;;;8.97;4.50;;;;;;;13.39;67.53;99255.95;1777387;79;21517;-82
2021/05/06 07:51:22;;;;;;;10.38;4.33;;;;;;;13.31;68.38;99268.78;1803612;79;21380;-82
2021/05/06 07:53:53;;;;;;;8.85;4.35;;;;;;;13.20;68.81;99259.70;1804770;79;21181;-81
2021/05/06 07:56:23;;;;;;;9.20;5.33;;;;;;;13.13;69.42;99270.25;1803555;79;21456;-81
2021/05/06 07:58:51;;;;;;;7.70;4.55;;;;;;;13.08;70.27;99288.20;1769267;81;21237;-82
2021/05/06 08:01:19;;;;;;;5.47;4.22;;;;;;;13.02;70.44;99301.77;1757916;81;21717;-82
2021/05/06 08:03:48;;;;;;;5.97;3.72;;;;;;;12.87;71.33;99306.20;1743385;80;21186;-82
2021/05/06 08:06:19;;;;;;;6.25;3.85;;;;;;;12.69;70.86;99301.53;1763640;81;21220;-82
2021/05/06 08:08:52;;;;;;;;;;;;;;;12.60;71.19;99304.70;1772215;80;21137;-82
2021/05/06 08:11:21;;;;;;;8.95;3.42;;;;;;;12.53;71.84;99292.33;1769433;81;21199;-80
2021/05/06 08:13:54;;;;;;;6.80;3.10;;;;;;;12.50;72.20;99307.52;1769832;80;21166;-83
2021/05/06 08:16:21;;;;;;;3.77;2.30;;;;;;;12.41;72.98;99318.61;1769731;81;21154;-83
2021/05/06 08:18:49;;;;;;;8.08;2.83;;;;;;;12.30;73.10;99327.98;1769445;81;21185;-82
2021/05/06 08:21:18;;;;;;;5.33;2.70;;;;;;;12.22;73.17;99327.58;1769463;81;21217;-81
2021/05/06 08:23:46;;;;;;;3.60;2.00;;;;;;;12.15;73.76;99334.14;1769224;81;21832;-80
2021/05/06 08:26:14;;;;;;;3.52;1.80;;;;;;;12.16;73.30;99333.20;1714845;82;21270;-80
2021/05/06 08:28:44;;;;;;;5.28;1.90;;;;;;;12.17;72.91;99329.64;1733927;82;21233;-82
2021/05/06 08:31:12;;;;;;;3.83;1.95;;;;;;;12.18;73.53;99337.92;1759727;81;21121;-82
2021/05/06 08:33:40;;;;;;;2.60;2.08;;;;;;;12.26;73.33;99341.44;1754298;81;21197;-80
2021/05/06 08:36:10;;;;;;;2.83;1.45;;;;;;;12.39;73.42;99340.66;1728573;83;21190;-81
2021/05/06 08:38:38;;;;;;;2.08;1.30;;;;;;;12.54;71.85;99340.74;1732167;81;21178;-81
2021/05/06 08:41:07;;;;;;;5.75;1.50;;;;;;;12.63;72.39;99345.49;1768072;81;21166;-82
2021/05/06 08:43:38;;;;;;;2.17;1.30;;;;;;;12.76;71.57;99342.97;1768224;79;21691;-83
2021/05/06 08:46:06;;;;;;;4.10;1.77;;;;;;;12.88;70.16;99336.95;1769273;81;26726;-82
2021/05/06 08:48:37;;;;;;;2.22;1.50;;;;;;;12.92;68.97;99343.77;1760020;81;22114;-83
2021/05/06 08:51:07;;;;;;;5.97;1.60;;;;;;;12.87;68.90;99364.81;1760584;81;21175;-81
2021/05/06 08:53:37;;;;;;;5.03;2.00;;;;;;;12.87;68.90;99364.81;1820837;78;21691;-81
2021/05/06 08:56:05;;;;;;;5.45;1.62;;;;;;;12.82;68.14;99384.89;1820945;78;21208;-81
2021/05/06 08:58:34;;;;;;;5.20;1.57;;;;;;;12.69;68.98;99380.77;1820787;78;22254;-82
2021/05/06 09:01:03;;;;;;;1.70;1.20;;;;;;;12.62;69.62;99391.31;1774971;80;21295;-82
2021/05/06 09:03:30;;;;;;;4.37;1.52;;;;;;;12.59;69.73;99379.62;1816091;77;21209;-81
2021/05/06 09:06:19;;;;;;;3.60;1.80;;;;;;;12.56;69.96;99387.70;1779528;79;21191;-81
2021/05/06 09:08:53;;;;;;;2.30;1.60;;;;;;;12.51;69.69;99402.95;1803073;77;21177;-82
2021/05/06 09:11:32;;;;;;;5.12;1.60;;;;;;;12.42;70.42;99410.08;1820725;77;21138;-76
2021/05/06 09:14:10;;;;;;;5.25;1.60;;;;;;;12.31;70.32;99416.83;1816970;77;21650;-78
2021/05/06 09:16:41;;;;;;;3.37;1.70;;;;;;;12.27;70.45;99418.40;1812895;77;21216;-78
2021/05/06 09:19:14;;;;;;;2.30;1.90;;;;;;;12.22;70.99;99417.33;1814508;77;21192;-79
2021/05/06 09:21:45;;;;;;;6.10;2.50;;;;;;;12.22;72.12;99419.97;1815783;75;21113;-79
2021/05/06 09:24:20;;;;;;;4.35;1.95;;;;;;;12.24;73.46;99414.14;1815414;77;21582;-77
2021/05/06 09:26:48;;;;;;;3.90;1.87;;;;;;;12.21;72.28;99420.89;1805067;77;22028;-79
2021/05/06 09:29:36;;;;;;;7.00;2.08;;;;;;;12.20;72.08;99421.84;1814310;77;21154;-77
2021/05/06 09:32:18;;;;;;;4.97;1.98;;;;;;;12.17;71.46;99425.50;1808459;77;21201;-78
2021/05/06 09:34:48;;;;;;;4.67;2.12;;;;;;;12.21;70.00;99423.53;1800071;77;21222;-76
2021/05/06 09:37:23;;;;;;;4.03;1.90;;;;;;;12.31;70.20;99418.14;1816107;77;21659;-77
2021/05/06 09:40:02;;;;;;;4.67;2.25;;;;;;;12.47;69.64;99430.47;1815602;78;22427;-77
2021/05/06 09:42:43;;;;;;;4.05;2.10;;;;;;;12.69;68.05;99420.88;1811470;77;21141;-76
2021/05/06 09:45:23;;;;;;;;;;;;;;;12.95;69.67;99427.30;1813125;77;21249;-76
2021/05/06 09:48:12;;;;;;;5.67;2.45;;;;;;;13.29;67.43;99423.56;1810457;77;20944;-77
2021/05/06 09:50:42;;;;;;;2.58;1.80;;;;;;;13.62;61.83;99424.67;1820337;77;21142;-77
2021/05/06 09:53:17;;;;;;;4.03;2.00;;;;;;;13.94;62.24;99421.84;1826580;77;21346;-77
2021/05/06 09:55:47;;;;;;;3.22;2.40;;;;;;;14.17;60.63;99430.99;1825889;77;21598;-76
2021/05/06 09:58:19;;;;;;;3.92;2.17;;;;;;;14.39;60.28;99427.81;1825442;78;21178;-79
2021/05/06 10:00:48;;;;;;;2.75;1.90;;;;;;;14.52;59.23;99428.38;1767815;80;21166;-81
2021/05/06 10:03:26;;;;;;;5.20;2.00;;;;;;;14.61;58.00;99423.83;1739891;81;21197;-81
2021/05/06 10:05:54;;;;;;;5.80;1.82;;;;;;;14.71;57.50;99427.57;1755701;81;21370;-78
2021/05/06 10:08:34;;;;;;;2.90;1.75;;;;;;;14.96;55.77;99422.83;1711078;82;21212;-80
2021/05/06 10:11:07;;;;;;;;;;;;;;;15.15;53.79;99425.09;1790179;80;21122;-82
2021/05/06 10:13:40;;;;;;;2.65;1.72;;;;;;;15.30;49.73;99426.73;1752742;81;20720;-81
2021/05/06 10:16:12;;;;;;;2.65;1.87;;;;;;;15.56;49.20;99433.38;1736874;81;21169;-83
2021/05/06 10:18:41;;;;;;;3.45;2.15;;;;;;;15.84;47.79;99438.14;1783402;80;21323;-82
2021/05/06 10:21:13;;;;;;;3.05;1.90;;;;;;;15.99;46.51;99445.04;1787311;80;21238;-83
2021/05/06 10:23:44;;;;;;;4.37;1.92;;;;;;;16.06;47.65;99445.45;1787818;80;21138;-82
2021/05/06 10:26:12;;;;;;;6.10;1.95;;;;;;;16.12;46.92;99451.16;1754761;80;22178;-83
2021/05/06 10:28:40;;;;;;;5.53;2.10;;;;;;;16.21;47.35;99448.82;1789144;79;21155;-76
2021/05/06 10:31:09;;;;;;;3.58;2.17;;;;;;;16.29;46.53;99454.45;1767745;80;21874;-78
2021/05/06 10:33:40;;;;;;;4.67;2.10;;;;;;;16.26;44.66;99449.34;1749762;82;21215;-78
2021/05/06 10:36:08;;;;;;;4.95;2.00;;;;;;;16.17;45.36;99449.50;1750082;82;21198;-79
2021/05/06 10:38:39;;;;;;;4.65;2.25;;;;;;;16.12;45.37;99450.31;1750068;82;21422;-78
2021/05/06 10:44:37;;;;;;;8.50;2.67;;;;;;;16.18;44.64;99451.70;1759649;79;23223;-78
2021/05/06 10:47:05;;;;;;;6.50;2.60;;;;;;;16.24;44.85;99448.59;1729117;81;21186;-78
2021/05/06 10:49:44;;;;;;;5.50;2.55;;;;;;;16.30;44.09;99456.98;1678451;85;21724;-77
2021/05/06 10:52:15;;;;;;;4.28;2.15;;;;;;;16.31;43.46;99453.83;1676309;84;21158;-77
2021/05/06 10:54:51;;;;;;;2.42;1.65;;;;;;;16.28;44.03;99458.05;1677800;84;21243;-78
2021/05/06 10:57:32;;;;;;;3.65;1.75;;;;;;;16.25;42.17;99466.25;1676023;84;21190;-77
2021/05/06 11:00:24;;;;;;;2.95;1.90;;;;;;;16.07;42.71;99458.61;1674850;84;21586;-77
2021/05/06 11:02:56;;;;;;;3.40;1.72;;;;;;;16.12;43.41;99465.77;1674725;84;21197;-79
2021/05/06 11:05:27;;;;;;;3.30;1.98;;;;;;;16.47;42.42;99454.45;1694894;83;21666;-77
2021/05/06 11:08:19;;;;;;;7.15;2.20;;;;;;;16.70;41.06;99451.91;1660014;85;21824;-77
2021/05/06 11:10:53;;;;;;;7.00;1.87;;;;;;;16.83;40.94;99451.42;1686372;85;21227;-77
2021/05/06 11:13:22;;;;;;;2.87;1.70;;;;;;;17.04;40.52;99445.47;1663011;85;21210;-77
2021/05/06 11:16:03;;;;;;;2.75;1.80;;;;;;;17.25;39.88;99451.83;1661925;84;21742;-76
2021/05/06 11:18:49;;;;;;;3.33;2.07;;;;;;;17.38;39.49;99443.78;1829702;76;28437;-81
2021/05/06 11:21:38;;;;;;;7.97;2.37;;;;;;;17.60;38.52;99453.64;1788060;78;21200;-78
2021/05/06 11:24:27;;;;;;;3.85;2.00;;;;;;;17.89;38.87;99445.23;1783989;80;21630;-78
2021/05/06 11:29:57;;;;;;;7.15;1.90;;;;;;;18.39;38.26;99445.70;1842725;76;22713;-78
2021/05/06 11:32:35;;;;;;;6.60;1.70;;;;;;;18.48;39.30;99443.63;1784469;79;21146;-78
2021/05/06 11:35:04;;;;;;;7.05;1.60;;;;;;;18.66;38.33;99446.13;1809087;78;21175;-80
2021/05/06 11:37:33;;;;;;;2.52;1.22;;;;;;;18.90;36.05;99450.45;1811888;79;21662;-76
2021/05/06 11:40:11;;;;;;;1.87;1.35;;;;;;;19.04;33.25;99445.31;1813007;78;21179;-74
2021/05/06 11:42:41;;;;;;;3.67;1.70;;;;;;;18.90;33.93;99442.45;1800696;79;21213;-76
2021/05/06 11:45:20;;;;;;;3.20;1.52;;;;;;;18.92;34.51;99456.52;1754348;80;21055;-75
2021/05/06 11:47:49;;;;;;;5.47;1.52;;;;;;;18.86;33.96;99454.34;1783233;79;21326;-76
2021/05/06 11:50:32;;;;;;;6.12;1.72;;;;;;;18.76;33.99;99454.22;1783414;80;21235;-76
2021/05/06 11:53:01;;;;;;;4.95;1.77;;;;;;;18.72;34.85;99463.94;1783554;79;21617;-77
2021/05/06 11:55:40;;;;;;;4.15;1.47;;;;;;;18.60;36.00;99464.45;1783031;80;21166;-75
2021/05/06 11:58:09;;;;;;;2.77;1.40;;;;;;;18.53;35.28;99461.42;1779022;79;21170;-76
2021/05/06 12:00:39;;;;;;;2.12;1.40;;;;;;;18.53;36.69;99459.25;1781728;80;21710;-75
2021/05/06 12:03:12;;;;;;;6.15;1.20;;;;;;;18.58;34.34;99461.89;1783488;80;21186;-76
2021/05/06 12:05:55;;;;;;;8.90;1.70;;;;;;;18.59;35.41;99466.27;1770145;80;21154;-74
2021/05/06 12:08:33;;;;;;;5.60;1.57;;;;;;;18.60;35.54;99462.63;1770879;80;21237;-75
2021/05/06 12:11:04;;;;;;;1.92;1.20;;;;;;;18.65;34.08;99459.09;1766737;80;21230;-75
2021/05/06 12:13:35;;;;;;;4.65;1.10;;;;;;;18.68;32.12;99462.48;1770820;80;22194;-75
2021/05/06 12:16:21;;;;;;;5.22;1.35;;;;;;;18.73;32.64;99450.48;1767713;80;21229;-76
2021/05/06 12:19:04;;;;;;;5.25;1.45;;;;;;;18.76;33.98;99458.72;1769703;79;21361;-76
2021/05/06 12:21:51;;;;;;;4.35;1.80;;;;;;;18.86;33.47;99459.67;1771079;80;21138;-76
2021/05/06 12:27:29;;;;;;;9.18;1.55;;;;;;;18.87;32.50;99453.38;1844794;76;22756;-74
2021/05/06 12:30:02;;;;;;;3.70;1.70;;;;;;;18.75;33.67;99454.34;1807174;77;21218;-77
2021/05/06 12:32:33;;;;;;;4.00;1.60;;;;;;;18.74;33.50;99456.66;1767550;78;60396;-76
2021/05/06 12:35:03;;;;;;;3.85;1.40;;;;;;;18.69;35.51;99452.19;1705571;82;21197;-77
2021/05/06 12:37:33;;;;;;;6.55;1.40;;;;;;;18.62;35.13;99447.34;1718588;82;21225;-77
2021/05/06 12:40:03;;;;;;;5.08;1.85;;;;;;;18.58;35.28;99452.56;1713930;83;21223;-78
2021/05/06 12:42:35;;;;;;;2.98;1.20;;;;;;;18.70;36.23;99455.20;1686550;83;21637;-76
2021/05/06 12:45:19;;;;;;;3.20;1.30;;;;;;;18.81;35.43;99456.55;1675062;85;21721;-76
2021/05/06 12:47:50;;;;;;;3.60;1.22;;;;;;;18.75;33.29;99453.00;1641425;84;21258;-79
2021/05/06 12:50:26;;;;;;;2.75;1.00;;;;;;;18.85;32.77;99454.83;1681087;83;21218;-80
2021/05/06 12:52:56;;;;;;;1.27;1.00;;;;;;;18.99;31.26;99448.85;1673588;84;21160;-80
2021/05/06 12:55:27;;;;;;;5.47;1.32;;;;;;;18.93;30.04;99456.02;1664409;85;21318;-80
2021/05/06 12:58:16;;;;;;;11.75;1.55;;;;;;;18.89;30.85;99454.11;1687543;83;21231;-80
2021/05/06 13:00:59;;;;;;;4.00;1.35;;;;;;;18.91;32.39;99449.50;1680043;83;21273;-79
2021/05/06 13:03:35;;;;;;;3.70;1.45;;;;;;;19.03;32.75;99451.63;1670104;85;21465;-80
2021/05/06 13:06:07;;;;;;;1.65;1.10;;;;;;;19.03;30.49;99444.47;1685763;83;21214;-81
2021/05/06 13:08:40;;;;;;;;;;;;;;;18.80;31.97;99452.20;1667752;85;21632;-80
2021/05/06 13:11:14;;;;;;;3.08;1.32;;;;;;;18.65;30.94;99452.91;1681719;83;21216;-79
2021/05/06 13:13:50;;;;;;;6.00;1.22;;;;;;;18.59;30.34;99446.77;1639310;84;21259;-79
2021/05/06 13:16:41;;;;;;;4.53;1.12;;;;;;;18.56;30.71;99454.50;1648249;84;21682;-80
2021/05/06 13:19:14;;;;;;;5.50;1.30;;;;;;;18.54;29.67;99443.14;1668100;84;21590;-75
2021/05/06 13:21:51;;;;;;;3.95;1.15;;;;;;;18.52;32.62;99442.88;1643185;85;21212;-75
2021/05/06 13:24:21;;;;;;;3.80;1.30;;;;;;;18.52;32.96;99445.08;1678922;83;21257;-76
2021/05/06 13:26:49;;;;;;;3.80;1.20;;;;;;;18.64;33.92;99440.07;1645940;85;21753;-75
2021/05/06 13:29:19;;;;;;;3.72;1.05;;;;;;;18.77;33.06;99440.42;1693616;83;21341;-75
2021/05/06 13:31:49;;;;;;;3.45;1.00;;;;;;;18.81;28.63;99451.21;1680332;83;21701;-77
2021/05/06 13:34:23;;;;;;;1.25;0.93;;;;;;;18.86;28.07;99437.00;1695614;82;23726;-76
2021/05/06 13:37:04;;;;;;;4.45;1.70;;;;;;;18.93;29.19;99434.18;1703886;82;21366;-77
2021/05/06 13:39:36;;;;;;;5.78;1.17;;;;;;;18.96;29.50;99439.28;1717018;82;21241;-78
2021/05/06 13:42:04;;;;;;;3.25;1.22;;;;;;;18.62;27.22;99435.34;1734043;81;21227;-75
2021/05/06 13:44:34;;;;;;;2.80;1.30;;;;;;;18.13;27.29;99441.10;1714793;82;21192;-75
2021/05/06 13:47:07;;;;;;;6.83;1.30;;;;;;;18.04;28.99;99450.69;1736094;81;21227;-75
2021/05/06 13:49:36;;;;;;;2.40;1.20;;;;;;;18.16;29.88;99452.37;1709628;82;21380;-73
2021/05/06 13:52:05;;;;;;;1.52;1.05;;;;;;;18.20;30.12;99445.00;1708768;82;21240;-75
2021/05/06 13:54:32;;;;;;;3.33;1.30;;;;;;;18.28;30.97;99448.38;1698358;83;21259;-75
2021/05/06 13:57:00;;;;;;;4.10;1.30;;;;;;;18.36;29.64;99456.62;1676435;83;21591;-78
2021/05/06 13:59:28;;;;;;;1.32;0.93;;;;;;;18.14;28.13;99446.81;1710635;82;21280;-74
2021/05/06 14:01:57;;;;;;;2.20;1.20;;;;;;;17.88;27.41;99456.86;1710355;81;21516;-73
2021/05/06 14:04:26;;;;;;;3.40;1.10;;;;;;;17.51;27.72;99462.34;1693130;83;21675;-74
2021/05/06 14:06:54;;;;;;;6.00;1.32;;;;;;;17.24;27.24;99470.10;1705104;82;21205;-74
2021/05/06 14:09:24;;;;;;;2.75;1.22;;;;;;;16.95;27.29;99462.95;1707487;82;21209;-74
2021/05/06 14:11:52;;;;;;;3.27;1.32;;;;;;;16.76;28.29;99460.78;1711488;82;21237;-78
2021/05/06 14:14:20;;;;;;;5.17;1.50;;;;;;;16.65;28.38;99464.21;1719208;82;21892;-73
2021/05/06 14:16:48;;;;;;;11.75;2.05;;;;;;;16.61;28.65;99463.22;1719558;81;21256;-74
2021/05/06 14:19:19;;;;;;;9.78;1.25;;;;;;;16.65;29.12;99463.38;1687472;82;21310;-73
2021/05/06 14:21:48;;;;;;;2.60;1.00;;;;;;;16.61;28.69;99461.89;1709847;83;21248;-73
2021/05/06 14:24:16;;;;;;;10.78;1.47;;;;;;;16.69;28.68;99460.86;1720911;82;21207;-73
2021/05/06 14:26:48;;;;;;;11.83;1.20;;;;;;;16.88;29.57;99459.90;1695080;83;22476;-72
2021/05/06 14:29:17;;;;;;;9.83;2.17;;;;;;;17.11;29.94;99453.36;1692031;83;21218;-73
2021/05/06 14:31:45;;;;;;;3.55;1.27;;;;;;;17.27;29.07;99445.91;1689236;83;21734;-73
2021/05/06 14:34:13;;;;;;;3.90;1.52;;;;;;;17.35;28.97;99439.54;1700807;83;21197;-72
2021/05/06 14:36:42;;;;;;;6.40;1.20;;;;;;;17.48;30.83;99449.23;1700850;82;21153;-73
2021/05/06 14:39:12;;;;;;;5.20;1.12;;;;;;;17.59;30.42;99457.25;1671276;84;21582;-72
2021/05/06 14:41:42;;;;;;;5.92;1.20;;;;;;;17.70;30.67;99451.95;1703421;83;21572;-72
2021/05/06 14:44:10;;;;;;;3.75;1.00;;;;;;;17.77;30.28;99442.52;1696651;83;21667;-73
2021/05/06 14:46:38;;;;;;;2.45;1.05;;;;;;;17.85;28.37;99443.77;1695186;84;21230;-73
2021/05/06 14:49:06;;;;;;;2.62;1.17;;;;;;;17.90;28.86;99453.11;1696318;81;128108;-72
2021/05/06 14:51:36;;;;;;;2.50;0.70;;;;;;;17.97;26.89;99445.48;1677457;83;21426;-74
2021/05/06 14:54:05;;;;;;;3.05;1.10;;;;;;;18.02;26.03;99445.97;1645749;85;21227;-74
2021/05/06 14:56:34;;;;;;;3.83;1.00;;;;;;;17.98;23.40;99455.16;1700126;82;21210;-72
2021/05/06 14:59:02;;;;;;;2.60;1.00;;;;;;;17.85;23.46;99455.75;1696406;83;21195;-74
2021/05/06 15:01:33;;;;;;;3.05;1.00;;;;;;;17.75;23.93;99444.45;1693478;83;21857;-72
2021/05/06 15:04:01;;;;;;;2.85;0.90;;;;;;;17.67;23.82;99460.65;1697403;83;21311;-72
2021/05/06 15:06:29;;;;;;;2.45;1.10;;;;;;;17.63;25.56;99456.06;1680941;84;21362;-73
2021/05/06 15:11:43;;;;;;;4.00;1.05;;;;;;;17.36;29.46;99461.18;1837569;76;23363;-73
2021/05/06 15:14:11;;;;;;;2.02;1.02;;;;;;;17.26;27.31;99459.36;1743373;81;21729;-73
2021/05/06 15:16:40;;;;;;;2.95;1.00;;;;;;;17.21;27.08;99458.38;1748284;81;21192;-73
2021/05/06 15:19:10;;;;;;;5.67;1.50;;;;;;;17.15;26.10;99461.48;1783146;80;21609;-71
2021/05/06 15:21:39;;;;;;;3.50;1.10;;;;;;;17.10;27.51;99464.97;1783364;80;21194;-71